sensor_id;sensor_type;location;lat;lon;timestamp;temperature;humidity
70089;HTU21D;57460;47.134;19.888;2023-09-19T00:00:30;23.98;50.10
70089;HTU21D;57460;47.134;19.888;2023-09-19T00:02:57;23.99;50.26
70089;HTU21D;57460;47.134;19.888;2023-09-19T00:05:28;24.01;50.02
70089;HTU21D;57460;47.134;19.888;2023-09-19T00:07:56;24.05;49.98
70089;HTU21D;57460;47.134;19.888;2023-09-19T00:10:28;24.03;50.08
70089;HTU21D;57460;47.134;19.888;2023-09-19T00:12:57;23.99;50.48
70089;HTU21D;57460;47.134;19.888;2023-09-19T00:15:26;23.96;50.33
70089;HTU21D;57460;47.134;19.888;2023-09-19T00:17:55;23.97;50.17
70089;HTU21D;57460;47.134;19.888;2023-09-19T00:20:21;23.99;50.02
70089;HTU21D;57460;47.134;19.888;2023-09-19T00:22:51;24.00;49.87
70089;HTU21D;57460;47.134;19.888;2023-09-19T00:25:20;23.97;50.18
70089;HTU21D;57460;47.134;19.888;2023-09-19T00:27:46;24.08;50.06
70089;HTU21D;57460;47.134;19.888;2023-09-19T00:30:17;23.99;50.07
70089;HTU21D;57460;47.134;19.888;2023-09-19T00:32:47;24.00;50.17
70089;HTU21D;57460;47.134;19.888;2023-09-19T00:35:14;23.98;50.18
70089;HTU21D;57460;47.134;19.888;2023-09-19T00:37:43;24.03;50.33
70089;HTU21D;57460;47.134;19.888;2023-09-19T00:40:11;24.05;50.23
70089;HTU21D;57460;47.134;19.888;2023-09-19T00:42:41;24.06;50.17
70089;HTU21D;57460;47.134;19.888;2023-09-19T00:45:12;24.09;50.12
70089;HTU21D;57460;47.134;19.888;2023-09-19T00:47:48;24.08;50.00
70089;HTU21D;57460;47.134;19.888;2023-09-19T00:50:17;24.12;50.11
70089;HTU21D;57460;47.134;19.888;2023-09-19T00:52:48;24.12;49.97
70089;HTU21D;57460;47.134;19.888;2023-09-19T00:55:16;24.15;49.64
70089;HTU21D;57460;47.134;19.888;2023-09-19T00:57:42;24.15;50.22
70089;HTU21D;57460;47.134;19.888;2023-09-19T01:00:10;24.12;50.04
70089;HTU21D;57460;47.134;19.888;2023-09-19T01:02:42;24.16;49.89
70089;HTU21D;57460;47.134;19.888;2023-09-19T01:05:09;24.12;50.15
70089;HTU21D;57460;47.134;19.888;2023-09-19T01:07:36;24.10;50.05
70089;HTU21D;57460;47.134;19.888;2023-09-19T01:10:06;24.05;50.09
70089;HTU21D;57460;47.134;19.888;2023-09-19T01:21:15;24.11;50.04
70089;HTU21D;57460;47.134;19.888;2023-09-19T01:32:04;24.06;50.11
70089;HTU21D;57460;47.134;19.888;2023-09-19T01:34:47;24.12;49.84
70089;HTU21D;57460;47.134;19.888;2023-09-19T01:37:18;24.09;50.13
70089;HTU21D;57460;47.134;19.888;2023-09-19T01:40:00;24.08;50.45
70089;HTU21D;57460;47.134;19.888;2023-09-19T01:42:43;24.12;50.37
70089;HTU21D;57460;47.134;19.888;2023-09-19T01:48:25;24.14;49.95
70089;HTU21D;57460;47.134;19.888;2023-09-19T01:51:05;24.15;50.13
70089;HTU21D;57460;47.134;19.888;2023-09-19T01:53:45;24.12;50.18
70089;HTU21D;57460;47.134;19.888;2023-09-19T01:56:25;24.12;50.58
70089;HTU21D;57460;47.134;19.888;2023-09-19T01:58:57;24.17;49.89
70089;HTU21D;57460;47.134;19.888;2023-09-19T02:01:27;24.14;49.84
70089;HTU21D;57460;47.134;19.888;2023-09-19T02:03:53;24.12;49.92
70089;HTU21D;57460;47.134;19.888;2023-09-19T02:06:21;24.13;50.25
70089;HTU21D;57460;47.134;19.888;2023-09-19T02:08:46;24.02;49.98
70089;HTU21D;57460;47.134;19.888;2023-09-19T02:11:13;24.01;50.04
70089;HTU21D;57460;47.134;19.888;2023-09-19T02:13:39;23.91;50.25
70089;HTU21D;57460;47.134;19.888;2023-09-19T02:16:06;23.99;50.47
70089;HTU21D;57460;47.134;19.888;2023-09-19T02:18:32;23.92;50.34
70089;HTU21D;57460;47.134;19.888;2023-09-19T02:21:03;23.92;50.34
70089;HTU21D;57460;47.134;19.888;2023-09-19T02:23:30;23.96;50.71
70089;HTU21D;57460;47.134;19.888;2023-09-19T02:25:59;23.98;50.82
70089;HTU21D;57460;47.134;19.888;2023-09-19T02:28:29;23.95;50.48
70089;HTU21D;57460;47.134;19.888;2023-09-19T02:30:59;23.96;50.52
70089;HTU21D;57460;47.134;19.888;2023-09-19T02:33:24;23.92;50.72
70089;HTU21D;57460;47.134;19.888;2023-09-19T02:35:55;23.92;50.72
70089;HTU21D;57460;47.134;19.888;2023-09-19T02:38:24;23.89;50.69
70089;HTU21D;57460;47.134;19.888;2023-09-19T02:40:52;23.90;50.66
70089;HTU21D;57460;47.134;19.888;2023-09-19T02:43:18;23.88;50.85
70089;HTU21D;57460;47.134;19.888;2023-09-19T02:45:45;23.88;51.20
70089;HTU21D;57460;47.134;19.888;2023-09-19T02:48:16;23.87;50.55
70089;HTU21D;57460;47.134;19.888;2023-09-19T02:50:42;23.89;50.59
70089;HTU21D;57460;47.134;19.888;2023-09-19T02:53:10;23.81;51.24
70089;HTU21D;57460;47.134;19.888;2023-09-19T02:55:38;23.88;50.39
70089;HTU21D;57460;47.134;19.888;2023-09-19T02:58:06;23.80;51.01
70089;HTU21D;57460;47.134;19.888;2023-09-19T03:00:33;23.76;51.02
70089;HTU21D;57460;47.134;19.888;2023-09-19T03:03:02;23.73;50.92
70089;HTU21D;57460;47.134;19.888;2023-09-19T03:05:28;23.70;51.02
70089;HTU21D;57460;47.134;19.888;2023-09-19T03:07:57;23.70;51.34
70089;HTU21D;57460;47.134;19.888;2023-09-19T03:10:26;23.66;51.43
70089;HTU21D;57460;47.134;19.888;2023-09-19T03:12:53;23.61;51.28
70089;HTU21D;57460;47.134;19.888;2023-09-19T03:15:19;23.61;51.30
70089;HTU21D;57460;47.134;19.888;2023-09-19T03:17:47;23.62;51.21
70089;HTU21D;57460;47.134;19.888;2023-09-19T03:20:14;23.60;51.39
70089;HTU21D;57460;47.134;19.888;2023-09-19T03:22:46;23.58;51.69
70089;HTU21D;57460;47.134;19.888;2023-09-19T03:25:12;23.46;51.75
70089;HTU21D;57460;47.134;19.888;2023-09-19T03:27:38;23.43;52.03
70089;HTU21D;57460;47.134;19.888;2023-09-19T03:30:05;23.38;51.88
70089;HTU21D;57460;47.134;19.888;2023-09-19T03:32:35;23.38;51.95
70089;HTU21D;57460;47.134;19.888;2023-09-19T03:35:01;23.40;51.99
70089;HTU21D;57460;47.134;19.888;2023-09-19T03:37:27;23.34;52.02
70089;HTU21D;57460;47.134;19.888;2023-09-19T03:39:53;23.31;52.35
70089;HTU21D;57460;47.134;19.888;2023-09-19T03:42:19;23.34;52.40
70089;HTU21D;57460;47.134;19.888;2023-09-19T03:44:57;23.30;52.46
70089;HTU21D;57460;47.134;19.888;2023-09-19T03:47:22;23.26;52.50
70089;HTU21D;57460;47.134;19.888;2023-09-19T03:49:48;23.25;52.55
70089;HTU21D;57460;47.134;19.888;2023-09-19T03:52:14;23.22;52.59
70089;HTU21D;57460;47.134;19.888;2023-09-19T03:54:42;23.20;52.55
70089;HTU21D;57460;47.134;19.888;2023-09-19T03:57:08;23.25;51.80
70089;HTU21D;57460;47.134;19.888;2023-09-19T03:59:35;23.18;52.48
70089;HTU21D;57460;47.134;19.888;2023-09-19T04:02:01;23.13;52.62
70089;HTU21D;57460;47.134;19.888;2023-09-19T04:04:27;23.09;53.21
70089;HTU21D;57460;47.134;19.888;2023-09-19T04:06:54;23.07;52.81
70089;HTU21D;57460;47.134;19.888;2023-09-19T04:09:20;23.06;52.86
70089;HTU21D;57460;47.134;19.888;2023-09-19T04:11:46;23.03;53.28
70089;HTU21D;57460;47.134;19.888;2023-09-19T04:14:12;23.00;53.28
70089;HTU21D;57460;47.134;19.888;2023-09-19T04:16:37;22.96;53.23
70089;HTU21D;57460;47.134;19.888;2023-09-19T04:19:04;22.94;53.17
70089;HTU21D;57460;47.134;19.888;2023-09-19T04:21:30;22.91;53.72
70089;HTU21D;57460;47.134;19.888;2023-09-19T04:23:57;22.92;53.03
70089;HTU21D;57460;47.134;19.888;2023-09-19T04:26:23;22.90;53.02
70089;HTU21D;57460;47.134;19.888;2023-09-19T04:28:49;22.88;53.80
70089;HTU21D;57460;47.134;19.888;2023-09-19T04:31:15;22.87;53.36
70089;HTU21D;57460;47.134;19.888;2023-09-19T04:33:42;22.84;53.09
70089;HTU21D;57460;47.134;19.888;2023-09-19T04:36:09;22.82;53.43
70089;HTU21D;57460;47.134;19.888;2023-09-19T04:38:35;22.83;53.70
70089;HTU21D;57460;47.134;19.888;2023-09-19T04:41:04;22.78;53.23
70089;HTU21D;57460;47.134;19.888;2023-09-19T04:43:30;22.76;53.65
70089;HTU21D;57460;47.134;19.888;2023-09-19T04:45:55;22.68;54.55
70089;HTU21D;57460;47.134;19.888;2023-09-19T04:48:22;22.66;54.01
70089;HTU21D;57460;47.134;19.888;2023-09-19T04:50:51;22.64;54.38
70089;HTU21D;57460;47.134;19.888;2023-09-19T04:53:20;22.61;54.62
70089;HTU21D;57460;47.134;19.888;2023-09-19T04:55:51;22.61;54.38
70089;HTU21D;57460;47.134;19.888;2023-09-19T04:58:24;22.65;54.27
70089;HTU21D;57460;47.134;19.888;2023-09-19T05:00:50;22.66;54.56
70089;HTU21D;57460;47.134;19.888;2023-09-19T05:03:17;22.67;54.10
70089;HTU21D;57460;47.134;19.888;2023-09-19T05:05:51;22.66;54.17
70089;HTU21D;57460;47.134;19.888;2023-09-19T05:08:17;22.70;53.18
70089;HTU21D;57460;47.134;19.888;2023-09-19T05:10:42;22.61;54.75
70089;HTU21D;57460;47.134;19.888;2023-09-19T05:13:08;22.66;55.37
70089;HTU21D;57460;47.134;19.888;2023-09-19T05:15:34;22.61;55.18
70089;HTU21D;57460;47.134;19.888;2023-09-19T05:18:01;22.63;54.67
70089;HTU21D;57460;47.134;19.888;2023-09-19T05:20:27;22.57;55.27
70089;HTU21D;57460;47.134;19.888;2023-09-19T05:23:07;22.62;54.71
70089;HTU21D;57460;47.134;19.888;2023-09-19T05:25:36;22.62;55.49
70089;HTU21D;57460;47.134;19.888;2023-09-19T05:28:06;22.66;55.06
70089;HTU21D;57460;47.134;19.888;2023-09-19T05:30:33;22.70;55.61
70089;HTU21D;57460;47.134;19.888;2023-09-19T05:32:59;22.71;53.97
70089;HTU21D;57460;47.134;19.888;2023-09-19T05:35:25;22.76;54.93
70089;HTU21D;57460;47.134;19.888;2023-09-19T05:37:54;22.78;55.22
70089;HTU21D;57460;47.134;19.888;2023-09-19T05:40:21;22.79;56.18
70089;HTU21D;57460;47.134;19.888;2023-09-19T05:42:47;22.79;55.27
70089;HTU21D;57460;47.134;19.888;2023-09-19T05:45:13;22.86;55.12
70089;HTU21D;57460;47.134;19.888;2023-09-19T05:47:40;22.95;55.28
70089;HTU21D;57460;47.134;19.888;2023-09-19T05:50:10;23.03;54.94
70089;HTU21D;57460;47.134;19.888;2023-09-19T05:52:36;23.21;54.42
70089;HTU21D;57460;47.134;19.888;2023-09-19T05:55:07;23.20;54.78
70089;HTU21D;57460;47.134;19.888;2023-09-19T05:57:37;23.34;54.87
70089;HTU21D;57460;47.134;19.888;2023-09-19T06:00:08;23.42;54.52
70089;HTU21D;57460;47.134;19.888;2023-09-19T06:02:36;23.50;54.24
70089;HTU21D;57460;47.134;19.888;2023-09-19T06:05:06;23.51;54.02
70089;HTU21D;57460;47.134;19.888;2023-09-19T06:07:38;23.61;54.48
70089;HTU21D;57460;47.134;19.888;2023-09-19T06:10:04;23.72;53.91
70089;HTU21D;57460;47.134;19.888;2023-09-19T06:12:41;23.70;54.07
70089;HTU21D;57460;47.134;19.888;2023-09-19T06:15:10;23.76;53.91
70089;HTU21D;57460;47.134;19.888;2023-09-19T06:17:42;23.80;53.91
70089;HTU21D;57460;47.134;19.888;2023-09-19T06:20:08;23.86;54.11
70089;HTU21D;57460;47.134;19.888;2023-09-19T06:22:44;23.82;54.03
70089;HTU21D;57460;47.134;19.888;2023-09-19T06:25:13;23.86;53.94
70089;HTU21D;57460;47.134;19.888;2023-09-19T06:27:45;24.01;53.81
70089;HTU21D;57460;47.134;19.888;2023-09-19T06:30:11;24.16;53.77
70089;HTU21D;57460;47.134;19.888;2023-09-19T06:32:38;24.28;53.59
70089;HTU21D;57460;47.134;19.888;2023-09-19T06:35:05;24.33;53.38
70089;HTU21D;57460;47.134;19.888;2023-09-19T06:37:33;24.47;52.84
70089;HTU21D;57460;47.134;19.888;2023-09-19T06:40:00;24.55;52.80
70089;HTU21D;57460;47.134;19.888;2023-09-19T06:42:26;24.60;53.09
70089;HTU21D;57460;47.134;19.888;2023-09-19T06:44:53;24.71;52.85
70089;HTU21D;57460;47.134;19.888;2023-09-19T06:47:19;24.89;53.14
70089;HTU21D;57460;47.134;19.888;2023-09-19T06:49:45;24.93;52.94
70089;HTU21D;57460;47.134;19.888;2023-09-19T06:52:11;24.87;53.30
70089;HTU21D;57460;47.134;19.888;2023-09-19T06:54:38;24.91;52.87
70089;HTU21D;57460;47.134;19.888;2023-09-19T06:57:05;25.00;53.01
70089;HTU21D;57460;47.134;19.888;2023-09-19T06:59:31;25.03;53.24
70089;HTU21D;57460;47.134;19.888;2023-09-19T07:01:58;24.99;53.76
70089;HTU21D;57460;47.134;19.888;2023-09-19T07:04:24;25.08;53.92
70089;HTU21D;57460;47.134;19.888;2023-09-19T07:06:50;25.04;53.41
70089;HTU21D;57460;47.134;19.888;2023-09-19T07:09:17;25.07;54.11
70089;HTU21D;57460;47.134;19.888;2023-09-19T07:11:45;25.15;54.55
70089;HTU21D;57460;47.134;19.888;2023-09-19T07:14:11;25.25;54.22
70089;HTU21D;57460;47.134;19.888;2023-09-19T07:16:38;25.35;54.43
70089;HTU21D;57460;47.134;19.888;2023-09-19T07:19:07;25.64;53.25
70089;HTU21D;57460;47.134;19.888;2023-09-19T07:21:33;25.83;53.29
70089;HTU21D;57460;47.134;19.888;2023-09-19T07:24:01;25.93;54.07
70089;HTU21D;57460;47.134;19.888;2023-09-19T07:26:30;25.79;53.67
70089;HTU21D;57460;47.134;19.888;2023-09-19T07:28:59;25.97;53.23
70089;HTU21D;57460;47.134;19.888;2023-09-19T07:31:25;25.75;54.71
70089;HTU21D;57460;47.134;19.888;2023-09-19T07:33:55;25.87;53.70
70089;HTU21D;57460;47.134;19.888;2023-09-19T07:36:21;25.77;54.02
70089;HTU21D;57460;47.134;19.888;2023-09-19T07:38:46;25.65;55.08
70089;HTU21D;57460;47.134;19.888;2023-09-19T07:41:14;25.59;54.91
70089;HTU21D;57460;47.134;19.888;2023-09-19T07:43:40;25.58;55.39
70089;HTU21D;57460;47.134;19.888;2023-09-19T07:46:07;25.54;55.29
70089;HTU21D;57460;47.134;19.888;2023-09-19T07:48:35;25.63;55.04
70089;HTU21D;57460;47.134;19.888;2023-09-19T07:51:08;25.83;54.07
70089;HTU21D;57460;47.134;19.888;2023-09-19T07:53:35;25.53;54.58
70089;HTU21D;57460;47.134;19.888;2023-09-19T07:56:08;25.38;55.00
70089;HTU21D;57460;47.134;19.888;2023-09-19T07:58:35;25.51;54.33
70089;HTU21D;57460;47.134;19.888;2023-09-19T08:01:10;25.09;55.53
70089;HTU21D;57460;47.134;19.888;2023-09-19T08:03:37;24.86;56.16
70089;HTU21D;57460;47.134;19.888;2023-09-19T08:06:10;24.59;57.53
70089;HTU21D;57460;47.134;19.888;2023-09-19T08:08:36;24.54;56.50
70089;HTU21D;57460;47.134;19.888;2023-09-19T08:11:06;24.27;57.33
70089;HTU21D;57460;47.134;19.888;2023-09-19T08:13:40;24.30;57.03
70089;HTU21D;57460;47.134;19.888;2023-09-19T08:16:13;24.14;57.27
70089;HTU21D;57460;47.134;19.888;2023-09-19T08:18:41;24.00;57.58
70089;HTU21D;57460;47.134;19.888;2023-09-19T08:21:08;23.68;58.39
70089;HTU21D;57460;47.134;19.888;2023-09-19T08:23:37;23.54;58.96
70089;HTU21D;57460;47.134;19.888;2023-09-19T08:26:07;23.40;59.06
70089;HTU21D;57460;47.134;19.888;2023-09-19T08:28:34;23.39;59.07
70089;HTU21D;57460;47.134;19.888;2023-09-19T08:31:06;23.13;60.47
70089;HTU21D;57460;47.134;19.888;2023-09-19T08:33:32;23.15;60.12
70089;HTU21D;57460;47.134;19.888;2023-09-19T08:36:00;22.92;61.61
70089;HTU21D;57460;47.134;19.888;2023-09-19T08:38:26;22.83;62.08
70089;HTU21D;57460;47.134;19.888;2023-09-19T08:41:06;22.90;61.12
70089;HTU21D;57460;47.134;19.888;2023-09-19T08:43:34;22.70;61.46
70089;HTU21D;57460;47.134;19.888;2023-09-19T08:46:11;22.73;61.01
70089;HTU21D;57460;47.134;19.888;2023-09-19T08:48:57;22.68;62.79
70089;HTU21D;57460;47.134;19.888;2023-09-19T08:51:39;22.85;61.09
70089;HTU21D;57460;47.134;19.888;2023-09-19T08:54:22;22.79;63.04
70089;HTU21D;57460;47.134;19.888;2023-09-19T08:56:54;22.97;61.31
70089;HTU21D;57460;47.134;19.888;2023-09-19T08:59:24;23.09;61.10
70089;HTU21D;57460;47.134;19.888;2023-09-19T09:01:54;23.30;60.54
70089;HTU21D;57460;47.134;19.888;2023-09-19T09:04:22;23.30;60.65
70089;HTU21D;57460;47.134;19.888;2023-09-19T09:06:53;23.42;60.81
70089;HTU21D;57460;47.134;19.888;2023-09-19T09:09:20;23.12;61.79
70089;HTU21D;57460;47.134;19.888;2023-09-19T09:11:48;23.46;60.46
70089;HTU21D;57460;47.134;19.888;2023-09-19T09:14:17;23.35;60.80
70089;HTU21D;57460;47.134;19.888;2023-09-19T09:16:43;23.41;60.60
70089;HTU21D;57460;47.134;19.888;2023-09-19T09:19:10;23.15;62.40
70089;HTU21D;57460;47.134;19.888;2023-09-19T09:21:38;23.35;61.17
70089;HTU21D;57460;47.134;19.888;2023-09-19T09:24:26;23.30;61.43
70089;HTU21D;57460;47.134;19.888;2023-09-19T09:26:54;23.25;61.41
70089;HTU21D;57460;47.134;19.888;2023-09-19T09:29:43;23.51;61.57
70089;HTU21D;57460;47.134;19.888;2023-09-19T09:32:23;23.81;60.80
70089;HTU21D;57460;47.134;19.888;2023-09-19T09:34:54;24.09;60.76
70089;HTU21D;57460;47.134;19.888;2023-09-19T09:37:21;24.48;58.87
70089;HTU21D;57460;47.134;19.888;2023-09-19T09:40:01;24.62;56.90
70089;HTU21D;57460;47.134;19.888;2023-09-19T09:42:42;24.84;56.80
70089;HTU21D;57460;47.134;19.888;2023-09-19T09:45:23;24.80;56.78
70089;HTU21D;57460;47.134;19.888;2023-09-19T09:48:04;24.71;56.38
70089;HTU21D;57460;47.134;19.888;2023-09-19T09:50:47;24.72;56.23
70089;HTU21D;57460;47.134;19.888;2023-09-19T09:53:27;24.65;56.10
70089;HTU21D;57460;47.134;19.888;2023-09-19T09:56:07;24.41;56.81
70089;HTU21D;57460;47.134;19.888;2023-09-19T09:58:36;24.49;56.40
70089;HTU21D;57460;47.134;19.888;2023-09-19T10:01:04;24.58;55.97
70089;HTU21D;57460;47.134;19.888;2023-09-19T10:03:57;24.70;55.70
70089;HTU21D;57460;47.134;19.888;2023-09-19T10:06:26;24.66;54.73
70089;HTU21D;57460;47.134;19.888;2023-09-19T10:09:10;24.73;55.58
70089;HTU21D;57460;47.134;19.888;2023-09-19T10:11:41;24.78;55.82
70089;HTU21D;57460;47.134;19.888;2023-09-19T10:14:15;25.24;55.52
70089;HTU21D;57460;47.134;19.888;2023-09-19T10:16:46;25.48;54.11
70089;HTU21D;57460;47.134;19.888;2023-09-19T10:19:21;25.71;54.02
70089;HTU21D;57460;47.134;19.888;2023-09-19T10:21:50;25.80;52.59
70089;HTU21D;57460;47.134;19.888;2023-09-19T10:24:21;25.96;51.49
70089;HTU21D;57460;47.134;19.888;2023-09-19T10:26:48;26.12;52.12
70089;HTU21D;57460;47.134;19.888;2023-09-19T10:29:18;26.26;51.34
70089;HTU21D;57460;47.134;19.888;2023-09-19T10:31:47;26.35;51.85
70089;HTU21D;57460;47.134;19.888;2023-09-19T10:34:20;26.60;48.62
70089;HTU21D;57460;47.134;19.888;2023-09-19T10:36:48;27.00;49.98
70089;HTU21D;57460;47.134;19.888;2023-09-19T10:39:16;27.16;47.94
70089;HTU21D;57460;47.134;19.888;2023-09-19T10:41:53;27.29;47.11
70089;HTU21D;57460;47.134;19.888;2023-09-19T10:44:25;27.08;47.41
70089;HTU21D;57460;47.134;19.888;2023-09-19T10:46:54;27.05;47.57
70089;HTU21D;57460;47.134;19.888;2023-09-19T10:49:21;27.05;47.29
70089;HTU21D;57460;47.134;19.888;2023-09-19T10:51:52;27.05;48.00
70089;HTU21D;57460;47.134;19.888;2023-09-19T10:54:25;27.13;46.83
70089;HTU21D;57460;47.134;19.888;2023-09-19T10:56:53;27.39;46.70
70089;HTU21D;57460;47.134;19.888;2023-09-19T10:59:24;27.47;46.20
70089;HTU21D;57460;47.134;19.888;2023-09-19T11:01:56;27.27;44.34
70089;HTU21D;57460;47.134;19.888;2023-09-19T11:07:08;26.68;45.57
70089;HTU21D;57460;47.134;19.888;2023-09-19T11:09:51;26.89;46.64
70089;HTU21D;57460;47.134;19.888;2023-09-19T11:14:52;27.15;46.46
70089;HTU21D;57460;47.134;19.888;2023-09-19T11:30:48;27.22;46.02
70089;HTU21D;57460;47.134;19.888;2023-09-19T11:33:30;27.22;46.33
70089;HTU21D;57460;47.134;19.888;2023-09-19T11:36:11;27.09;46.80
70089;HTU21D;57460;47.134;19.888;2023-09-19T11:46:55;27.24;46.74
70089;HTU21D;57460;47.134;19.888;2023-09-19T11:49:29;27.15;46.66
70089;HTU21D;57460;47.134;19.888;2023-09-19T11:51:58;27.26;46.67
70089;HTU21D;57460;47.134;19.888;2023-09-19T11:54:31;27.11;47.47
70089;HTU21D;57460;47.134;19.888;2023-09-19T11:56:59;27.45;47.10
70089;HTU21D;57460;47.134;19.888;2023-09-19T11:59:26;27.75;45.64
70089;HTU21D;57460;47.134;19.888;2023-09-19T12:01:55;27.65;45.25
70089;HTU21D;57460;47.134;19.888;2023-09-19T12:04:39;27.69;45.88
70089;HTU21D;57460;47.134;19.888;2023-09-19T12:07:07;27.64;44.34
70089;HTU21D;57460;47.134;19.888;2023-09-19T12:09:40;27.69;45.54
70089;HTU21D;57460;47.134;19.888;2023-09-19T12:12:22;27.78;45.42
70089;HTU21D;57460;47.134;19.888;2023-09-19T12:14:51;27.73;45.73
70089;HTU21D;57460;47.134;19.888;2023-09-19T12:17:17;27.60;45.79
70089;HTU21D;57460;47.134;19.888;2023-09-19T12:19:51;27.64;45.38
70089;HTU21D;57460;47.134;19.888;2023-09-19T12:22:17;27.41;44.64
70089;HTU21D;57460;47.134;19.888;2023-09-19T12:24:46;27.30;45.76
70089;HTU21D;57460;47.134;19.888;2023-09-19T12:27:13;27.38;45.77
70089;HTU21D;57460;47.134;19.888;2023-09-19T12:29:47;27.75;45.23
70089;HTU21D;57460;47.134;19.888;2023-09-19T12:32:35;27.75;44.57
70089;HTU21D;57460;47.134;19.888;2023-09-19T12:35:01;27.79;44.75
70089;HTU21D;57460;47.134;19.888;2023-09-19T12:37:33;27.69;45.06
70089;HTU21D;57460;47.134;19.888;2023-09-19T12:40:09;27.82;44.48
70089;HTU21D;57460;47.134;19.888;2023-09-19T12:42:49;27.68;44.54
70089;HTU21D;57460;47.134;19.888;2023-09-19T12:45:16;27.71;44.02
70089;HTU21D;57460;47.134;19.888;2023-09-19T12:51:08;27.46;44.21
70089;HTU21D;57460;47.134;19.888;2023-09-19T12:53:44;27.32;42.80
70089;HTU21D;57460;47.134;19.888;2023-09-19T12:56:14;27.53;44.18
70089;HTU21D;57460;47.134;19.888;2023-09-19T12:58:58;27.67;43.42
70089;HTU21D;57460;47.134;19.888;2023-09-19T13:01:33;27.86;43.84
70089;HTU21D;57460;47.134;19.888;2023-09-19T13:06:44;27.51;44.39
70089;HTU21D;57460;47.134;19.888;2023-09-19T13:09:11;27.71;43.36
70089;HTU21D;57460;47.134;19.888;2023-09-19T13:11:38;27.80;43.71
70089;HTU21D;57460;47.134;19.888;2023-09-19T13:17:01;27.81;42.24
70089;HTU21D;57460;47.134;19.888;2023-09-19T13:19:46;28.08;42.72
70089;HTU21D;57460;47.134;19.888;2023-09-19T13:22:39;28.01;42.26
70089;HTU21D;57460;47.134;19.888;2023-09-19T13:25:13;27.98;42.67
70089;HTU21D;57460;47.134;19.888;2023-09-19T13:27:42;28.12;42.73
70089;HTU21D;57460;47.134;19.888;2023-09-19T13:30:08;28.21;42.14
70089;HTU21D;57460;47.134;19.888;2023-09-19T13:32:35;28.27;41.80
70089;HTU21D;57460;47.134;19.888;2023-09-19T13:35:00;28.30;41.70
70089;HTU21D;57460;47.134;19.888;2023-09-19T13:37:26;28.35;41.62
70089;HTU21D;57460;47.134;19.888;2023-09-19T13:39:52;28.32;41.41
70089;HTU21D;57460;47.134;19.888;2023-09-19T13:42:19;28.30;40.75
70089;HTU21D;57460;47.134;19.888;2023-09-19T13:44:47;28.21;41.23
70089;HTU21D;57460;47.134;19.888;2023-09-19T13:47:13;28.21;41.41
70089;HTU21D;57460;47.134;19.888;2023-09-19T13:49:40;28.25;41.85
70089;HTU21D;57460;47.134;19.888;2023-09-19T13:52:08;28.21;41.94
70089;HTU21D;57460;47.134;19.888;2023-09-19T13:54:34;28.28;41.06
70089;HTU21D;57460;47.134;19.888;2023-09-19T13:57:00;28.19;41.86
70089;HTU21D;57460;47.134;19.888;2023-09-19T13:59:29;28.19;41.93
70089;HTU21D;57460;47.134;19.888;2023-09-19T14:01:56;28.30;41.74
70089;HTU21D;57460;47.134;19.888;2023-09-19T14:04:22;28.24;42.09
70089;HTU21D;57460;47.134;19.888;2023-09-19T14:06:48;28.06;42.48
70089;HTU21D;57460;47.134;19.888;2023-09-19T14:09:14;28.03;42.07
70089;HTU21D;57460;47.134;19.888;2023-09-19T14:11:41;27.78;42.89
70089;HTU21D;57460;47.134;19.888;2023-09-19T14:14:07;27.81;43.06
70089;HTU21D;57460;47.134;19.888;2023-09-19T14:16:33;27.79;43.26
70089;HTU21D;57460;47.134;19.888;2023-09-19T14:18:59;27.68;43.52
70089;HTU21D;57460;47.134;19.888;2023-09-19T14:21:25;27.84;43.26
70089;HTU21D;57460;47.134;19.888;2023-09-19T14:23:51;27.74;43.59
70089;HTU21D;57460;47.134;19.888;2023-09-19T14:26:20;27.51;44.28
70089;HTU21D;57460;47.134;19.888;2023-09-19T14:28:45;27.81;44.03
70089;HTU21D;57460;47.134;19.888;2023-09-19T14:31:11;27.84;43.64
70089;HTU21D;57460;47.134;19.888;2023-09-19T14:33:40;27.66;43.96
70089;HTU21D;57460;47.134;19.888;2023-09-19T14:36:08;27.61;43.58
70089;HTU21D;57460;47.134;19.888;2023-09-19T14:38:37;27.58;42.69
70089;HTU21D;57460;47.134;19.888;2023-09-19T14:41:06;27.68;43.64
70089;HTU21D;57460;47.134;19.888;2023-09-19T14:43:32;27.65;43.80
70089;HTU21D;57460;47.134;19.888;2023-09-19T14:46:08;27.70;43.93
70089;HTU21D;57460;47.134;19.888;2023-09-19T14:48:35;27.65;44.09
70089;HTU21D;57460;47.134;19.888;2023-09-19T14:51:07;27.21;44.61
70089;HTU21D;57460;47.134;19.888;2023-09-19T14:53:37;27.26;44.78
70089;HTU21D;57460;47.134;19.888;2023-09-19T14:56:04;27.34;44.67
70089;HTU21D;57460;47.134;19.888;2023-09-19T14:58:32;27.31;44.73
70089;HTU21D;57460;47.134;19.888;2023-09-19T15:01:16;27.28;44.49
70089;HTU21D;57460;47.134;19.888;2023-09-19T15:03:43;27.31;44.73
70089;HTU21D;57460;47.134;19.888;2023-09-19T15:06:10;27.30;44.70
70089;HTU21D;57460;47.134;19.888;2023-09-19T15:08:41;27.24;45.41
70089;HTU21D;57460;47.134;19.888;2023-09-19T15:11:11;27.30;45.03
70089;HTU21D;57460;47.134;19.888;2023-09-19T15:13:39;27.34;44.84
70089;HTU21D;57460;47.134;19.888;2023-09-19T15:16:06;27.28;44.77
70089;HTU21D;57460;47.134;19.888;2023-09-19T15:18:40;27.04;44.70
70089;HTU21D;57460;47.134;19.888;2023-09-19T15:21:11;27.26;43.93
70089;HTU21D;57460;47.134;19.888;2023-09-19T15:23:39;27.02;44.45
70089;HTU21D;57460;47.134;19.888;2023-09-19T15:26:10;27.07;44.50
70089;HTU21D;57460;47.134;19.888;2023-09-19T15:28:40;26.95;44.71
70089;HTU21D;57460;47.134;19.888;2023-09-19T15:31:08;26.93;44.75
70089;HTU21D;57460;47.134;19.888;2023-09-19T15:33:35;26.84;45.01
70089;HTU21D;57460;47.134;19.888;2023-09-19T15:36:13;26.71;45.41
70089;HTU21D;57460;47.134;19.888;2023-09-19T15:38:59;26.69;45.47
70089;HTU21D;57460;47.134;19.888;2023-09-19T15:41:27;26.72;45.50
70089;HTU21D;57460;47.134;19.888;2023-09-19T15:43:54;26.70;45.72
70089;HTU21D;57460;47.134;19.888;2023-09-19T15:46:21;26.55;46.42
70089;HTU21D;57460;47.134;19.888;2023-09-19T15:48:47;26.64;46.15
70089;HTU21D;57460;47.134;19.888;2023-09-19T15:51:14;26.75;45.82
70089;HTU21D;57460;47.134;19.888;2023-09-19T15:53:48;26.57;45.90
70089;HTU21D;57460;47.134;19.888;2023-09-19T15:56:15;26.46;46.15
70089;HTU21D;57460;47.134;19.888;2023-09-19T15:58:45;26.40;46.25
70089;HTU21D;57460;47.134;19.888;2023-09-19T16:01:11;26.39;46.05
70089;HTU21D;57460;47.134;19.888;2023-09-19T16:03:39;26.17;46.46
70089;HTU21D;57460;47.134;19.888;2023-09-19T16:06:14;26.11;46.58
70089;HTU21D;57460;47.134;19.888;2023-09-19T16:08:44;25.92;46.45
70089;HTU21D;57460;47.134;19.888;2023-09-19T16:11:11;25.87;46.52
70089;HTU21D;57460;47.134;19.888;2023-09-19T16:13:38;25.82;46.55